Time;durP1;ratioP1;P1;durP2;ratioP2;P2;SDS_P1;SDS_P2;PMS_P1;PMS_P2;Temp;Humidity;BMP_temperature;BMP_pressure;BME280_temperature;BME280_humidity;BME280_pressure;Samples;Min_cycle;Max_cycle;Signal;HPM_P1;HPM_P2
2022/12/13 00:01:52;;;;;;;0.30;0.30;;;-7.10;99.90;-9.20;96262.00;;;;5088137;28;20207;-74
2022/12/13 00:04:23;;;;;;;0.30;0.30;;;-7.00;99.90;-9.10;96364.00;;;;5073350;28;20189;-72
2022/12/13 00:06:53;;;;;;;0.28;0.28;;;-6.90;99.90;-9.10;96253.00;;;;5071951;28;20233;-72
2022/12/13 00:09:22;;;;;;;0.20;0.20;;;-6.80;99.90;-9.10;96334.00;;;;5084546;28;20225;-72
2022/12/13 00:11:51;;;;;;;0.30;0.30;;;-6.80;99.90;-9.20;96329.00;;;;5081344;28;20201;-74
2022/12/13 00:14:19;;;;;;;0.20;0.20;;;-7.00;99.90;-9.30;96311.00;;;;5076003;28;20601;-73
2022/12/13 00:16:50;;;;;;;0.22;0.22;;;-7.10;99.90;-9.30;96323.00;;;;5072437;28;20197;-72
2022/12/13 00:19:19;;;;;;;0.20;0.20;;;-7.10;99.90;-9.20;96328.00;;;;5081163;28;20229;-72
2022/12/13 00:21:48;;;;;;;0.30;0.30;;;-7.00;99.90;-9.30;96309.00;;;;5063013;28;20593;-73
2022/12/13 00:24:17;;;;;;;0.30;0.30;;;-7.10;99.90;-9.40;96316.00;;;;5073711;28;20239;-71
2022/12/13 00:26:45;;;;;;;0.30;0.30;;;-7.10;99.90;-9.40;96306.00;;;;5071922;28;20247;-72
2022/12/13 00:29:13;;;;;;;0.30;0.30;;;-7.20;99.90;-9.40;96300.00;;;;5071690;28;20217;-71
2022/12/13 00:31:41;;;;;;;0.30;0.30;;;-7.10;99.90;-9.20;96297.00;;;;5072575;28;20190;-71
2022/12/13 00:34:31;;;;;;;0.30;0.30;;;-7.10;99.90;-9.10;96307.00;;;;5072700;28;20201;-71
2022/12/13 00:36:59;;;;;;;0.30;0.30;;;-6.90;99.90;-9.10;96297.00;;;;5077444;28;20749;-72
2022/12/13 00:39:28;;;;;;;0.25;0.25;;;-6.90;99.90;-9.30;96305.00;;;;5079918;28;20224;-72
2022/12/13 00:41:57;;;;;;;0.30;0.30;;;-7.00;99.90;-9.40;96289.00;;;;5080566;28;20200;-71
2022/12/13 00:44:26;;;;;;;0.30;0.30;;;-7.10;99.90;-9.30;96256.00;;;;5084420;28;20719;-71
2022/12/13 00:46:55;;;;;;;0.30;0.30;;;-7.10;99.90;-9.40;96299.00;;;;5072927;28;20312;-71
2022/12/13 00:49:24;;;;;;;0.30;0.30;;;-7.20;99.90;-9.60;96289.00;;;;5073055;28;20213;-71
2022/12/13 00:51:55;;;;;;;0.30;0.30;;;-7.40;99.90;-9.80;96272.00;;;;5079361;28;20189;-72
2022/12/13 00:54:23;;;;;;;0.30;0.30;;;-7.60;99.90;-9.70;96286.00;;;;5088961;28;20472;-71
2022/12/13 00:56:51;;;;;;;0.30;0.30;;;-7.50;99.90;-9.70;96264.00;;;;5083780;28;20250;-71
2022/12/13 00:59:20;;;;;;;0.20;0.20;;;-7.50;99.90;-9.80;96265.00;;;;5083157;28;20296;-71
2022/12/13 01:01:48;;;;;;;0.30;0.30;;;-7.60;99.90;-9.80;96273.00;;;;5083023;28;20193;-71
2022/12/13 01:04:16;;;;;;;0.30;0.30;;;-7.60;99.90;-9.80;96264.00;;;;5086135;28;20200;-72
2022/12/13 01:06:48;;;;;;;0.20;0.20;;;-7.60;99.90;-9.70;96295.00;;;;5075092;28;20225;-73
2022/12/13 01:09:21;;;;;;;0.20;0.20;;;-7.50;99.90;-9.70;96255.00;;;;5095618;28;20691;-72
2022/12/13 01:11:50;;;;;;;0.20;0.20;;;-7.50;99.90;-9.60;96270.00;;;;5087336;28;20551;-72
2022/12/13 01:14:20;;;;;;;0.20;0.20;;;-7.50;99.90;-9.70;96275.00;;;;5080476;28;20216;-75
2022/12/13 01:16:48;;;;;;;0.30;0.30;;;-7.50;99.90;-9.60;96280.00;;;;5077774;28;20224;-72
2022/12/13 01:19:16;;;;;;;0.20;0.20;;;-7.40;99.90;-9.60;96271.00;;;;5079502;28;20232;-75
2022/12/13 01:21:44;;;;;;;0.30;0.30;;;-7.40;99.90;-9.60;96271.00;;;;5081060;28;20197;-74
2022/12/13 01:24:12;;;;;;;0.30;0.30;;;-7.40;99.90;-9.70;96273.00;;;;5067465;28;20255;-74
2022/12/13 01:26:42;;;;;;;0.30;0.30;;;-7.40;99.90;-9.70;96268.00;;;;5072262;28;20228;-74
2022/12/13 01:29:10;;;;;;;0.30;0.30;;;-7.50;99.90;-9.80;96268.00;;;;5065492;28;20618;-72
2022/12/13 01:31:40;;;;;;;0.30;0.30;;;-7.50;99.90;-10.00;96258.00;;;;5066978;28;20190;-71
2022/12/13 01:34:10;;;;;;;0.30;0.30;;;-7.60;99.90;-10.00;96154.00;;;;5075817;28;20667;-74
2022/12/13 01:36:39;;;;;;;0.28;0.28;;;-7.70;99.90;-10.10;96256.00;;;;5073993;28;20204;-72
2022/12/13 01:39:08;;;;;;;0.30;0.30;;;-7.80;99.90;-10.30;96235.00;;;;5074944;28;20213;-73
2022/12/13 01:41:45;;;;;;;0.20;0.20;;;-8.00;99.90;-10.30;96242.00;;;;5080443;28;20197;-71
2022/12/13 01:44:57;;;;;;;0.20;0.20;;;-8.00;99.90;-10.30;96249.00;;;;5078319;28;20546;-71
2022/12/13 01:47:31;;;;;;;0.20;0.20;;;-8.00;99.90;-10.40;96236.00;;;;5079872;28;20221;-73
2022/12/13 01:50:07;;;;;;;0.30;0.30;;;-8.10;99.90;-10.20;96235.00;;;;5079628;28;20221;-72
2022/12/13 01:52:37;;;;;;;0.30;0.30;;;-8.00;99.90;-10.10;96241.00;;;;5090633;28;20185;-72
2022/12/13 01:55:09;;;;;;;0.30;0.30;;;-7.90;99.90;-9.90;96253.00;;;;5082980;28;20201;-74
2022/12/13 01:57:43;;;;;;;0.20;0.20;;;-7.80;99.90;-9.80;96258.00;;;;5082496;28;20194;-72
2022/12/13 02:00:15;;;;;;;0.30;0.30;;;-7.60;99.90;-10.00;96223.00;;;;5077377;28;20222;-74
2022/12/13 02:02:46;;;;;;;0.20;0.20;;;-7.70;99.90;-10.00;96240.00;;;;5075204;28;20617;-72
2022/12/13 02:05:25;;;;;;;0.20;0.20;;;-7.80;99.90;-10.00;96231.00;;;;5076418;28;20210;-72
2022/12/13 02:07:55;;;;;;;0.30;0.30;;;-7.80;99.90;-9.90;96244.00;;;;5071319;28;20292;-71
2022/12/13 02:10:24;;;;;;;0.22;0.22;;;-7.80;99.90;-9.90;96233.00;;;;5078171;28;20202;-71
2022/12/13 02:12:54;;;;;;;0.20;0.20;;;-7.60;99.90;-9.90;96258.00;;;;5093905;28;20185;-71
2022/12/13 02:15:23;;;;;;;0.30;0.30;;;-7.60;99.90;-9.80;96249.00;;;;5088940;28;20190;-71
2022/12/13 02:18:22;;;;;;;0.20;0.20;;;-7.60;99.90;-10.00;96248.00;;;;5060731;28;20748;-71
2022/12/13 02:21:19;;;;;;;0.20;0.20;;;-7.60;99.90;-10.10;96252.00;;;;5086193;28;20193;-72
2022/12/13 02:24:24;;;;;;;0.30;0.30;;;-7.70;99.90;-10.20;96244.00;;;;5064470;28;20202;-72
2022/12/13 02:27:03;;;;;;;0.30;0.30;;;-7.90;99.90;-10.40;96240.00;;;;5057305;28;20581;-74
2022/12/13 02:30:19;;;;;;;0.20;0.20;;;-8.00;99.90;-10.50;96240.00;;;;5077400;28;20586;-75
2022/12/13 02:33:22;;;;;;;0.30;0.30;;;-8.20;99.90;-10.60;96244.00;;;;5080860;28;20205;-77
2022/12/13 02:36:03;;;;;;;0.30;0.30;;;-8.30;99.90;-10.50;96239.00;;;;5075144;28;20546;-75
2022/12/13 02:38:44;;;;;;;0.20;0.20;;;-8.20;99.90;-10.40;96249.00;;;;5083189;28;20208;-75
2022/12/13 02:41:25;;;;;;;0.30;0.30;;;-8.10;99.90;-10.40;96246.00;;;;5078836;28;20718;-76
2022/12/13 02:44:04;;;;;;;0.20;0.20;;;-8.10;99.90;-10.30;96229.00;;;;5084196;28;20603;-75
2022/12/13 02:46:55;;;;;;;0.30;0.30;;;-8.00;99.90;-10.00;96244.00;;;;5077990;28;20249;-76
2022/12/13 02:49:30;;;;;;;0.20;0.20;;;-7.80;99.90;-9.90;96256.00;;;;5077113;28;20676;-75
2022/12/13 02:52:01;;;;;;;0.20;0.20;;;-7.70;99.90;-10.10;96236.00;;;;5074227;28;20200;-76
2022/12/13 02:54:30;;;;;;;0.30;0.30;;;-7.80;99.90;-10.20;96231.00;;;;5085352;28;20194;-75
2022/12/13 02:57:00;;;;;;;0.30;0.30;;;-7.90;99.90;-10.20;96243.00;;;;5083704;28;20198;-76
2022/12/13 02:59:35;;;;;;;0.30;0.30;;;-7.90;99.90;-10.10;96244.00;;;;5095188;28;20224;-76
2022/12/13 03:02:17;;;;;;;0.20;0.20;;;-7.80;99.90;-10.00;96258.00;;;;5089150;28;20249;-77
2022/12/13 03:08:14;;;;;;;0.20;0.20;;;-7.70;99.90;-10.10;96222.00;;;;5075782;28;20713;-77
2022/12/13 03:10:52;;;;;;;0.20;0.20;;;-7.80;99.90;-10.20;96230.00;;;;5084668;28;20577;-76
2022/12/13 03:13:37;;;;;;;0.30;0.30;;;-7.90;99.90;-10.30;96218.00;;;;5082906;28;20254;-77
2022/12/13 03:16:17;;;;;;;0.20;0.20;;;-8.10;99.90;-10.40;96227.00;;;;5081551;28;20197;-76
2022/12/13 03:18:53;;;;;;;0.20;0.20;;;-8.20;99.90;-10.50;96203.00;;;;5080446;28;20221;-75
2022/12/13 03:21:22;;;;;;;0.30;0.30;;;-8.20;99.90;-10.50;96214.00;;;;5080911;28;20204;-75
2022/12/13 03:23:51;;;;;;;0.20;0.20;;;-8.20;99.90;-11.00;96219.00;;;;5090120;28;20245;-76
2022/12/13 03:26:25;;;;;;;0.30;0.30;;;-8.20;99.90;-10.50;96223.00;;;;5074689;28;20198;-76
2022/12/13 03:28:54;;;;;;;0.20;0.20;;;-8.20;99.90;-10.40;96220.00;;;;5087059;28;20229;-77
2022/12/13 03:31:22;;;;;;;0.20;0.20;;;-8.20;99.90;-10.30;96232.00;;;;5071472;28;20194;-76
2022/12/13 03:33:52;;;;;;;0.30;0.30;;;-8.10;99.90;-10.10;96220.00;;;;5073198;28;20230;-75
2022/12/13 03:36:21;;;;;;;0.30;0.30;;;-8.00;99.90;-10.30;96229.00;;;;5070587;28;20506;-75
2022/12/13 03:38:52;;;;;;;0.20;0.20;;;-8.00;99.90;-10.40;96223.00;;;;5074236;28;20220;-75
2022/12/13 03:41:30;;;;;;;0.20;0.20;;;-8.10;99.90;-10.40;96219.00;;;;5077707;28;20193;-74
2022/12/13 03:43:58;;;;;;;0.30;0.30;;;-8.20;99.90;-10.40;96211.00;;;;5083344;28;20255;-75
2022/12/13 03:46:26;;;;;;;0.30;0.30;;;-8.10;99.90;-10.30;96220.00;;;;5073741;28;20239;-75
2022/12/13 03:48:56;;;;;;;0.20;0.20;;;-8.00;99.90;-10.20;96236.00;;;;5075956;28;20216;-76
2022/12/13 03:51:24;;;;;;;0.30;0.30;;;-7.90;99.90;-10.10;96217.00;;;;5078976;28;20242;-76
2022/12/13 03:53:52;;;;;;;0.30;0.30;;;-8.00;99.90;-10.20;96217.00;;;;5079575;28;20252;-76
2022/12/13 03:56:20;;;;;;;0.30;0.30;;;-8.10;99.90;-10.20;96216.00;;;;5077917;28;20975;-76
2022/12/13 03:58:48;;;;;;;0.30;0.30;;;-8.10;99.90;-10.20;96213.00;;;;5071061;28;20221;-76
2022/12/13 04:01:17;;;;;;;0.30;0.30;;;-8.10;99.90;-10.30;96218.00;;;;5083546;28;20250;-75
2022/12/13 04:03:47;;;;;;;0.30;0.30;;;-8.00;99.90;-10.50;96201.00;;;;5066113;28;20202;-76
2022/12/13 04:06:17;;;;;;;0.20;0.20;;;-8.30;99.90;-10.50;96209.00;;;;5073274;28;20229;-76
2022/12/13 04:08:50;;;;;;;0.30;0.30;;;-8.20;99.90;-10.50;96214.00;;;;5080291;28;20225;-76
2022/12/13 04:14:10;;;;;;;0.30;0.30;;;-8.30;99.90;-10.70;96201.00;;;;5085067;28;20293;-77
2022/12/13 04:16:38;;;;;;;0.20;0.20;;;-8.40;99.90;-10.80;96204.00;;;;5070143;28;20562;-77
2022/12/13 04:19:07;;;;;;;0.20;0.20;;;-8.60;99.90;-11.00;96189.00;;;;5085074;28;20232;-77
2022/12/13 04:21:36;;;;;;;0.20;0.20;;;-8.70;99.90;-11.00;96192.00;;;;5080122;28;20243;-76
2022/12/13 04:24:05;;;;;;;0.30;0.30;;;-8.70;99.90;-11.10;96179.00;;;;5086742;28;20221;-74
2022/12/13 04:26:33;;;;;;;0.25;0.25;;;-8.80;99.90;-11.00;96187.00;;;;5073450;28;20247;-74
2022/12/13 04:29:01;;;;;;;0.20;0.20;;;-8.80;99.90;-11.00;96181.00;;;;5070620;28;20363;-76
2022/12/13 04:31:29;;;;;;;0.20;0.20;;;-8.80;99.90;-11.10;96053.00;;;;5072761;28;20201;-75
2022/12/13 04:33:57;;;;;;;0.40;0.40;;;-8.80;99.90;-11.10;96180.00;;;;5074846;28;20281;-74
2022/12/13 04:36:25;;;;;;;0.30;0.30;;;-8.90;99.90;-11.10;96183.00;;;;5076166;28;20190;-71
2022/12/13 04:39:01;;;;;;;0.30;0.30;;;-8.80;99.90;-11.00;96209.00;;;;5071299;28;20255;-73
2022/12/13 04:41:35;;;;;;;0.30;0.30;;;-8.70;99.90;-10.90;96189.00;;;;5084377;28;20197;-73
2022/12/13 04:44:05;;;;;;;0.30;0.30;;;-8.60;99.90;-10.90;96180.00;;;;5077512;28;20190;-72
2022/12/13 04:46:54;;;;;;;0.20;0.20;;;-8.70;99.90;-10.80;96190.00;;;;5072995;28;20281;-72
2022/12/13 04:49:28;;;;;;;0.30;0.30;;;-8.60;99.90;-10.80;96187.00;;;;5072954;28;20257;-73
2022/12/13 04:51:56;;;;;;;0.30;0.30;;;-8.60;99.90;-10.60;96196.00;;;;5078772;28;20227;-72
2022/12/13 04:54:31;;;;;;;0.20;0.20;;;-8.40;99.90;-10.70;96055.00;;;;5071589;28;20538;-72
2022/12/13 04:57:07;;;;;;;0.20;0.20;;;-8.50;99.90;-10.70;96188.00;;;;5071287;28;20220;-72
2022/12/13 04:59:36;;;;;;;0.30;0.30;;;-8.50;99.90;-10.70;96180.00;;;;5081820;28;20223;-73
2022/12/13 05:02:06;;;;;;;0.30;0.30;;;-8.50;99.90;-10.70;96190.00;;;;5081070;28;20254;-73
2022/12/13 05:04:35;;;;;;;0.30;0.30;;;-8.40;99.90;-10.80;96074.00;;;;5083509;28;20196;-73
2022/12/13 05:07:03;;;;;;;0.30;0.30;;;-8.60;99.90;-10.80;96170.00;;;;5069224;28;20227;-73
2022/12/13 05:09:33;;;;;;;0.20;0.20;;;-8.60;99.90;-10.80;96177.00;;;;5071428;28;20270;-74
2022/12/13 05:12:01;;;;;;;0.30;0.30;;;-8.60;99.90;-10.80;96167.00;;;;5074701;28;20600;-72
2022/12/13 05:14:30;;;;;;;0.30;0.30;;;-8.60;99.90;-10.80;96207.00;;;;5071682;28;20190;-72
2022/12/13 05:16:59;;;;;;;0.30;0.30;;;-8.60;99.90;-10.80;96184.00;;;;5079973;28;20757;-71
2022/12/13 05:19:28;;;;;;;0.25;0.25;;;-8.60;99.90;-10.80;96196.00;;;;5075651;28;20248;-73
2022/12/13 05:21:58;;;;;;;0.30;0.30;;;-8.50;99.90;-10.90;96195.00;;;;5078139;28;20607;-71
2022/12/13 05:24:31;;;;;;;0.30;0.30;;;-8.60;99.90;-11.00;96177.00;;;;5080840;28;20189;-72
2022/12/13 05:26:59;;;;;;;0.30;0.30;;;-8.70;99.90;-11.10;96174.00;;;;5074641;28;20197;-72
2022/12/13 05:29:28;;;;;;;0.40;0.40;;;-8.90;99.90;-11.10;96174.00;;;;5075813;28;20221;-75
2022/12/13 05:31:56;;;;;;;0.30;0.30;;;-8.90;99.90;-11.00;96182.00;;;;5078338;28;20197;-73
2022/12/13 05:34:24;;;;;;;0.30;0.30;;;-8.80;99.90;-11.10;96185.00;;;;5079022;28;20197;-73
2022/12/13 05:36:52;;;;;;;0.30;0.30;;;-8.80;99.90;-11.10;96183.00;;;;5080312;28;20206;-72
2022/12/13 05:39:20;;;;;;;0.30;0.30;;;-8.80;99.90;-11.10;96182.00;;;;5073503;28;20224;-72
2022/12/13 05:41:59;;;;;;;0.30;0.30;;;-8.80;99.90;-11.10;96186.00;;;;5077703;28;20244;-73
2022/12/13 05:44:31;;;;;;;0.30;0.30;;;-8.80;99.90;-11.00;96215.00;;;;5074654;28;20252;-72
2022/12/13 05:47:00;;;;;;;0.30;0.30;;;-8.70;99.90;-11.00;96198.00;;;;5072136;28;20562;-72
2022/12/13 05:49:31;;;;;;;0.30;0.30;;;-8.70;99.90;-11.10;96176.00;;;;5085582;28;20729;-72
2022/12/13 05:51:59;;;;;;;0.30;0.30;;;-8.80;99.90;-11.20;96187.00;;;;5074558;28;20213;-72
2022/12/13 05:54:27;;;;;;;0.20;0.20;;;-9.00;99.90;-11.10;96184.00;;;;5077952;28;20595;-72
2022/12/13 05:56:57;;;;;;;0.25;0.25;;;-8.90;99.90;-11.30;96186.00;;;;5078560;28;20193;-72
2022/12/13 05:59:25;;;;;;;0.30;0.30;;;-8.90;99.90;-11.00;96177.00;;;;5082500;28;20221;-74
2022/12/13 06:01:53;;;;;;;0.30;0.30;;;-8.70;99.90;-10.90;96203.00;;;;5079528;28;20210;-74
2022/12/13 06:04:21;;;;;;;0.20;0.20;;;-8.60;99.90;-10.90;96191.00;;;;5079926;28;20189;-72
2022/12/13 06:06:51;;;;;;;0.30;0.30;;;-8.50;99.90;-10.90;96187.00;;;;5076580;28;20205;-72
2022/12/13 06:09:19;;;;;;;0.20;0.20;;;-8.60;99.90;-11.00;96100.00;;;;5080667;28;20746;-76
2022/12/13 06:11:48;;;;;;;0.30;0.30;;;-8.60;99.90;-11.00;96191.00;;;;5076195;28;20605;-74
2022/12/13 06:14:17;;;;;;;0.30;0.30;;;-8.60;99.90;-10.80;96205.00;;;;5085643;28;20247;-75
2022/12/13 06:16:51;;;;;;;0.30;0.30;;;-8.50;99.90;-11.00;96196.00;;;;5074010;28;20300;-75
2022/12/13 06:19:19;;;;;;;0.30;0.30;;;-8.60;99.90;-11.00;96192.00;;;;5079855;28;20220;-75
2022/12/13 06:21:47;;;;;;;0.20;0.20;;;-8.70;99.90;-11.10;96196.00;;;;5080839;28;20197;-74
2022/12/13 06:24:18;;;;;;;0.20;0.20;;;-8.70;99.90;-11.10;96174.00;;;;5073343;28;20239;-75
2022/12/13 06:26:46;;;;;;;0.20;0.20;;;-8.80;99.90;-11.10;96197.00;;;;5080166;28;20442;-70
2022/12/13 06:29:15;;;;;;;0.30;0.30;;;-8.70;99.90;-11.50;96176.00;;;;5069095;28;20220;-71
2022/12/13 06:31:58;;;;;;;0.30;0.30;;;-8.80;99.90;-11.10;96195.00;;;;5083026;28;20198;-71
2022/12/13 06:34:31;;;;;;;0.22;0.22;;;-8.80;99.90;-11.30;96196.00;;;;5079216;28;20255;-71
2022/12/13 06:37:02;;;;;;;0.30;0.30;;;-9.00;99.90;-11.30;96169.00;;;;5083229;28;20197;-71
2022/12/13 06:39:31;;;;;;;0.30;0.30;;;-9.00;99.90;-11.30;96177.00;;;;5085224;28;20271;-71
2022/12/13 06:42:02;;;;;;;0.30;0.30;;;-9.00;99.90;-11.30;96198.00;;;;5084873;28;20277;-71
2022/12/13 06:44:30;;;;;;;0.20;0.20;;;-9.00;99.90;-11.30;96189.00;;;;5085572;28;20566;-72
2022/12/13 06:47:01;;;;;;;0.20;0.20;;;-9.10;99.90;-11.40;96179.00;;;;5083230;28;20198;-72
2022/12/13 06:49:42;;;;;;;0.20;0.20;;;-9.10;99.90;-11.40;96199.00;;;;5088667;28;20320;-71
2022/12/13 06:52:14;;;;;;;0.20;0.20;;;-9.20;99.90;-11.80;96180.00;;;;5084689;28;20603;-71
2022/12/13 06:54:43;;;;;;;0.30;0.30;;;-9.10;99.90;-11.40;96188.00;;;;5076059;28;20201;-71
2022/12/13 06:57:12;;;;;;;0.20;0.20;;;-9.10;99.90;-11.80;96186.00;;;;5085283;28;20184;-71
2022/12/13 06:59:41;;;;;;;0.20;0.20;;;-9.10;99.90;-11.40;96205.00;;;;5078714;28;20636;-71
2022/12/13 07:02:11;;;;;;;0.40;0.40;;;-9.10;99.90;-11.30;96199.00;;;;5081357;28;20201;-71
2022/12/13 07:04:54;;;;;;;0.20;0.20;;;-9.00;99.90;-11.30;96221.00;;;;5087700;28;20288;-72
2022/12/13 07:07:24;;;;;;;0.20;0.20;;;-9.00;99.90;-11.30;96200.00;;;;5082708;28;20270;-72
2022/12/13 07:09:53;;;;;;;0.30;0.30;;;-9.10;99.90;-11.30;96215.00;;;;5080976;28;20225;-71
2022/12/13 07:12:21;;;;;;;0.30;0.30;;;-9.00;99.90;-11.40;96219.00;;;;5084434;28;20193;-72
2022/12/13 07:14:50;;;;;;;0.30;0.30;;;-9.10;99.90;-11.40;96204.00;;;;5081633;28;20201;-71
2022/12/13 07:17:19;;;;;;;0.30;0.30;;;-9.10;99.90;-11.40;96200.00;;;;5083938;28;20209;-71
2022/12/13 07:20:00;;;;;;;0.30;0.30;;;-9.10;99.90;-11.30;96206.00;;;;5081975;28;20221;-71
2022/12/13 07:22:28;;;;;;;0.30;0.30;;;-9.00;99.90;-11.30;96209.00;;;;5084424;28;20189;-71
2022/12/13 07:25:04;;;;;;;0.30;0.30;;;-8.90;99.90;-11.20;96204.00;;;;5083315;28;20268;-71
2022/12/13 07:27:33;;;;;;;0.30;0.30;;;-8.90;99.90;-11.30;96228.00;;;;5084355;28;20737;-71
2022/12/13 07:30:02;;;;;;;0.20;0.20;;;-9.00;99.90;-11.40;96213.00;;;;5081247;28;20225;-72
2022/12/13 07:32:31;;;;;;;0.30;0.30;;;-9.10;99.90;-11.40;96211.00;;;;5084253;28;20197;-71
2022/12/13 07:34:59;;;;;;;0.25;0.25;;;-9.10;99.90;-11.30;96221.00;;;;5081523;28;20197;-71
2022/12/13 07:37:27;;;;;;;0.20;0.20;;;-9.10;99.90;-11.30;96236.00;;;;5077278;28;20189;-72
2022/12/13 07:39:58;;;;;;;0.20;0.20;;;-9.00;99.90;-11.30;96230.00;;;;5081149;28;20305;-72
2022/12/13 07:42:31;;;;;;;0.20;0.20;;;-9.00;99.90;-11.30;96221.00;;;;5083538;28;20193;-71
2022/12/13 07:45:00;;;;;;;0.30;0.30;;;-9.00;99.90;-11.30;96229.00;;;;5073612;28;20208;-73
2022/12/13 07:47:31;;;;;;;0.30;0.30;;;-8.90;99.90;-11.20;96228.00;;;;5083673;28;20211;-71
2022/12/13 07:49:59;;;;;;;0.30;0.30;;;-8.80;99.90;-11.10;96229.00;;;;5082923;28;20225;-71
2022/12/13 07:52:29;;;;;;;0.30;0.30;;;-8.80;99.90;-11.10;96220.00;;;;5084807;28;20272;-72
2022/12/13 07:54:57;;;;;;;0.30;0.30;;;-8.80;99.90;-11.00;96227.00;;;;5081927;28;20200;-71
2022/12/13 07:57:25;;;;;;;0.30;0.30;;;-8.70;99.90;-11.00;96233.00;;;;5084242;28;20611;-72
2022/12/13 07:59:53;;;;;;;0.30;0.30;;;-8.70;99.90;-10.90;96234.00;;;;5083029;28;20740;-71
2022/12/13 08:02:21;;;;;;;0.30;0.30;;;-8.60;99.90;-10.90;96234.00;;;;5077152;28;20243;-71
2022/12/13 08:04:51;;;;;;;0.30;0.30;;;-8.60;99.90;-10.90;96231.00;;;;5077617;28;20202;-72
2022/12/13 08:07:22;;;;;;;0.30;0.30;;;-8.60;99.90;-10.80;96243.00;;;;5081882;28;20201;-71
2022/12/13 08:09:50;;;;;;;0.30;0.30;;;-8.50;99.90;-10.70;96236.00;;;;5080094;28;20251;-72
2022/12/13 08:12:20;;;;;;;0.20;0.20;;;-8.50;99.90;-10.90;96232.00;;;;5083748;28;20189;-72
2022/12/13 08:14:50;;;;;;;0.30;0.30;;;-8.70;99.90;-10.90;96220.00;;;;5080834;28;20228;-72
2022/12/13 08:17:21;;;;;;;0.30;0.30;;;-8.70;99.90;-11.00;96239.00;;;;5083248;28;20569;-72
2022/12/13 08:19:51;;;;;;;0.20;0.20;;;-8.80;99.90;-11.00;96209.00;;;;5081482;28;20224;-72
2022/12/13 08:22:19;;;;;;;0.30;0.30;;;-8.80;99.90;-11.00;96206.00;;;;5083130;28;20300;-72
2022/12/13 08:24:51;;;;;;;0.20;0.20;;;-8.80;99.90;-11.00;96194.00;;;;5083489;28;20273;-72
2022/12/13 08:27:19;;;;;;;0.30;0.30;;;-8.80;99.90;-10.90;96219.00;;;;5083685;28;20196;-71
2022/12/13 08:29:48;;;;;;;0.20;0.20;;;-8.70;99.90;-10.90;96217.00;;;;5079700;28;20274;-72
2022/12/13 08:32:16;;;;;;;0.30;0.30;;;-8.70;99.90;-10.80;96174.00;;;;5078627;28;20205;-72
2022/12/13 08:34:44;;;;;;;0.30;0.30;;;-8.60;99.90;-10.80;96222.00;;;;5081949;28;20189;-71
2022/12/13 08:37:14;;;;;;;0.20;0.20;;;-8.60;99.90;-10.70;96235.00;;;;5082618;28;20197;-72
2022/12/13 08:39:43;;;;;;;0.30;0.30;;;-8.60;99.90;-10.50;96246.00;;;;5083300;28;20217;-72
2022/12/13 08:42:13;;;;;;;0.30;0.30;;;-8.40;99.90;-10.50;96290.00;;;;5079873;28;20218;-71
2022/12/13 08:44:48;;;;;;;0.20;0.20;;;-8.40;99.90;-10.40;96260.00;;;;5073492;28;20212;-72
2022/12/13 08:47:18;;;;;;;0.30;0.30;;;-8.30;99.90;-10.40;96115.00;;;;5072584;28;20189;-72
2022/12/13 08:49:53;;;;;;;0.30;0.30;;;-8.30;99.90;-10.40;96240.00;;;;5084680;28;20224;-73
2022/12/13 08:52:23;;;;;;;0.20;0.20;;;-8.30;99.90;-10.40;96243.00;;;;5091877;28;20547;-72
2022/12/13 08:54:52;;;;;;;0.20;0.20;;;-8.20;99.90;-10.30;96241.00;;;;5088739;28;20258;-72
2022/12/13 08:57:20;;;;;;;0.30;0.30;;;-8.20;99.90;-10.20;96248.00;;;;5086507;28;20246;-73
2022/12/13 08:59:48;;;;;;;0.20;0.20;;;-8.10;99.90;-10.20;96263.00;;;;5087667;28;20266;-73
2022/12/13 09:02:16;;;;;;;0.20;0.20;;;-8.00;99.90;-10.10;96249.00;;;;5084104;28;20589;-72
2022/12/13 09:04:45;;;;;;;0.20;0.20;;;-8.00;99.90;-10.00;96258.00;;;;5097478;28;20662;-72
2022/12/13 09:07:13;;;;;;;0.30;0.30;;;-7.90;99.90;-9.90;96259.00;;;;5080287;28;20235;-72
2022/12/13 09:09:43;;;;;;;0.30;0.30;;;-7.80;99.90;-9.80;96253.00;;;;5083269;28;20214;-72
2022/12/13 09:12:11;;;;;;;0.25;0.25;;;-7.70;99.90;-9.60;96263.00;;;;5085553;28;20726;-73
2022/12/13 09:14:58;;;;;;;0.30;0.30;;;-7.60;99.90;-9.50;96252.00;;;;5080514;28;20194;-72
2022/12/13 09:17:32;;;;;;;0.20;0.20;;;-7.40;99.90;-9.50;96255.00;;;;5081724;28;20733;-73
2022/12/13 09:20:10;;;;;;;0.30;0.30;;;-7.40;99.90;-9.40;96257.00;;;;5080427;28;20225;-71
2022/12/13 09:22:57;;;;;;;0.30;0.30;;;-7.30;99.90;-9.30;96272.00;;;;5077595;28;20267;-71
2022/12/13 09:25:31;;;;;;;0.30;0.30;;;-7.20;99.90;-9.20;96257.00;;;;5086452;28;20200;-72
2022/12/13 09:28:07;;;;;;;0.20;0.20;;;-7.10;99.90;-9.20;96259.00;;;;5084115;28;20269;-71
2022/12/13 09:30:35;;;;;;;0.20;0.20;;;-7.10;99.90;-9.10;96276.00;;;;5087401;28;20719;-71
2022/12/13 09:33:03;;;;;;;0.20;0.20;;;-7.10;99.90;-9.00;96256.00;;;;5084149;28;20262;-71
2022/12/13 09:35:52;;;;;;;0.20;0.20;;;-7.00;99.90;-9.00;96257.00;;;;5089573;28;20224;-72
2022/12/13 09:38:21;;;;;;;0.20;0.20;;;-6.90;99.90;-8.90;96266.00;;;;5070134;28;20218;-72
2022/12/13 09:40:55;;;;;;;0.30;0.30;;;-6.90;99.90;-8.90;96265.00;;;;5084950;28;20515;-72
2022/12/13 09:43:31;;;;;;;0.30;0.30;;;-6.80;99.90;-8.80;96233.00;;;;5085165;28;20201;-72
2022/12/13 09:46:22;;;;;;;0.30;0.30;;;-6.80;99.90;-8.70;96252.00;;;;5084459;28;20209;-72
2022/12/13 09:48:55;;;;;;;0.20;0.20;;;-6.70;99.90;-8.50;96211.00;;;;5082823;28;20221;-72
2022/12/13 09:51:32;;;;;;;0.30;0.30;;;-6.50;99.90;-8.40;96254.00;;;;5086065;28;20224;-74
2022/12/13 09:54:19;;;;;;;0.20;0.20;;;-6.40;99.90;-8.40;96243.00;;;;5079329;28;20196;-72
2022/12/13 09:56:50;;;;;;;0.20;0.20;;;-6.20;99.90;-8.10;96255.00;;;;5077049;28;20201;-72
2022/12/13 09:59:27;;;;;;;0.20;0.20;;;-6.10;99.90;-8.00;96246.00;;;;5083846;28;20274;-72
2022/12/13 10:01:56;;;;;;;0.20;0.20;;;-6.00;99.90;-7.90;96222.00;;;;5086667;28;20209;-72
2022/12/13 10:04:24;;;;;;;0.30;0.30;;;-5.90;99.90;-7.90;96242.00;;;;5085321;28;20258;-73
2022/12/13 10:06:53;;;;;;;0.20;0.20;;;-5.90;99.90;-7.80;96243.00;;;;5084665;28;20243;-73
2022/12/13 10:09:22;;;;;;;0.30;0.30;;;-5.90;99.90;-7.80;96239.00;;;;5082308;28;20271;-72
2022/12/13 10:11:54;;;;;;;0.20;0.20;;;-5.80;99.90;-7.70;96119.00;;;;5073927;28;20218;-73
2022/12/13 10:14:30;;;;;;;0.30;0.30;;;-5.70;99.90;-7.50;96247.00;;;;5086570;28;20221;-72
2022/12/13 10:17:06;;;;;;;0.30;0.30;;;-5.60;99.90;-7.50;96278.00;;;;5082883;28;20288;-72
2022/12/13 10:19:38;;;;;;;0.20;0.20;;;-5.60;99.90;-7.40;96259.00;;;;5085762;28;20209;-74
2022/12/13 10:22:13;;;;;;;0.30;0.30;;;-5.50;99.90;-7.20;96272.00;;;;5084431;28;20629;-71
2022/12/13 10:24:51;;;;;;;0.20;0.20;;;-5.30;99.90;-7.20;96265.00;;;;5081492;28;20245;-72
2022/12/13 10:27:28;;;;;;;0.30;0.30;;;-5.30;99.90;-7.30;96253.00;;;;5073306;28;20193;-71
2022/12/13 10:30:07;;;;;;;0.30;0.30;;;-5.30;99.90;-7.10;96239.00;;;;5083626;28;20217;-72
2022/12/13 10:32:51;;;;;;;0.28;0.28;;;-5.20;99.90;-7.10;96232.00;;;;5086391;28;20193;-71
2022/12/13 10:35:27;;;;;;;0.20;0.20;;;-5.20;99.90;-7.10;96251.00;;;;5084761;28;20250;-72
2022/12/13 10:37:57;;;;;;;0.20;0.20;;;-5.10;99.90;-7.00;96232.00;;;;5084178;28;20197;-72
2022/12/13 10:40:32;;;;;;;0.20;0.20;;;-5.10;99.90;-7.20;96247.00;;;;5085715;28;20204;-72
2022/12/13 10:43:14;;;;;;;0.30;0.30;;;-5.00;99.90;-6.80;96242.00;;;;5083362;28;20201;-71
2022/12/13 10:45:44;;;;;;;0.20;0.20;;;-4.90;99.90;-6.70;96239.00;;;;5081857;28;20662;-71
2022/12/13 10:48:21;;;;;;;0.20;0.20;;;-4.80;99.90;-6.50;96249.00;;;;5087415;28;20229;-73
2022/12/13 10:50:59;;;;;;;0.30;0.30;;;-4.70;99.90;-6.50;96251.00;;;;5077874;28;20720;-74
2022/12/13 10:53:33;;;;;;;0.20;0.20;;;-4.60;99.90;-6.40;96242.00;;;;5085970;28;20659;-73
2022/12/13 10:56:03;;;;;;;0.20;0.20;;;-4.50;99.90;-6.30;96244.00;;;;5083886;28;20728;-71
2022/12/13 10:58:40;;;;;;;0.30;0.30;;;-4.40;99.90;-6.20;96249.00;;;;5086717;28;20217;-74
2022/12/13 11:01:21;;;;;;;0.20;0.20;;;-4.30;99.90;-6.10;96282.00;;;;5080699;28;20204;-73
2022/12/13 11:03:58;;;;;;;0.20;0.20;;;-4.20;99.90;-6.00;96256.00;;;;5077853;28;20246;-73
2022/12/13 11:06:47;;;;;;;0.20;0.20;;;-4.10;99.90;-6.10;96252.00;;;;5084372;28;20827;-73
2022/12/13 11:09:16;;;;;;;0.20;0.20;;;-4.00;99.90;-5.80;96287.00;;;;5073532;28;20713;-73
2022/12/13 11:11:52;;;;;;;0.30;0.30;;;-3.90;99.90;-5.60;96245.00;;;;5074148;28;20224;-73
2022/12/13 11:14:32;;;;;;;0.20;0.20;;;-3.90;99.90;-5.50;96175.00;;;;5085087;28;20298;-73
2022/12/13 11:17:08;;;;;;;0.20;0.20;;;-3.70;99.90;-5.50;96251.00;;;;5081894;28;20227;-73
2022/12/13 11:19:43;;;;;;;0.20;0.20;;;-3.60;99.90;-5.40;96252.00;;;;5084330;28;20275;-73